Time;durP1;ratioP1;P1;durP2;ratioP2;P2;SDS_P1;SDS_P2;PMS_P1;PMS_P2;Temp;Humidity;BMP_temperature;BMP_pressure;BME280_temperature;BME280_humidity;BME280_pressure;Samples;Min_cycle;Max_cycle;Signal;HPM_P1;HPM_P2
2023/02/26 00:02:17;;;;;;;30.77;14.88;;;20.90;99.90;;;;;;5028416;28;20097;-61
2023/02/26 00:04:43;;;;;;;32.00;15.93;;;20.90;99.90;;;;;;5013326;28;20102;-61
2023/02/26 00:07:09;;;;;;;29.73;14.48;;;20.90;99.90;;;;;;5029499;28;20116;-60
2023/02/26 00:09:34;;;;;;;27.77;14.27;;;20.90;99.90;;;;;;5033009;28;20442;-61
2023/02/26 00:12:01;;;;;;;26.45;14.18;;;20.90;99.90;;;;;;5032904;28;20038;-61
2023/02/26 00:14:27;;;;;;;29.40;14.75;;;20.80;99.90;;;;;;5024780;28;20022;-61
2023/02/26 00:17:12;;;;;;;32.17;14.65;;;20.80;99.90;;;;;;5013180;28;20028;-62
2023/02/26 00:19:38;;;;;;;25.30;14.23;;;20.80;99.90;;;;;;5010127;28;20096;-59
2023/02/26 00:22:04;;;;;;;26.48;14.77;;;20.80;99.90;;;;;;5032851;28;20029;-62
2023/02/26 00:24:30;;;;;;;27.25;13.80;;;20.80;99.90;;;;;;5019407;28;20022;-62
2023/02/26 00:26:56;;;;;;;23.88;13.32;;;20.80;99.90;;;;;;5025464;28;20373;-59
2023/02/26 00:29:22;;;;;;;23.30;13.30;;;20.80;99.90;;;;;;4979382;28;20113;-62
2023/02/26 00:31:48;;;;;;;24.30;13.95;;;20.80;99.90;;;;;;5031927;28;20026;-61
2023/02/26 00:34:14;;;;;;;23.58;13.60;;;20.80;99.90;;;;;;5002533;28;20049;-60
2023/02/26 00:37:01;;;;;;;26.45;14.00;;;20.80;99.90;;;;;;5012838;28;20376;-60
2023/02/26 00:39:43;;;;;;;29.35;14.27;;;20.80;99.90;;;;;;5012801;28;20022;-59
2023/02/26 00:42:09;;;;;;;26.25;13.05;;;20.80;99.90;;;;;;5019734;28;20490;-60
2023/02/26 00:44:35;;;;;;;26.98;14.15;;;20.80;99.90;;;;;;5019082;28;20029;-60
2023/02/26 00:47:21;;;;;;;24.58;13.13;;;20.70;99.90;;;;;;5012684;28;20061;-59
2023/02/26 00:50:15;;;;;;;23.27;13.07;;;20.70;99.90;;;;;;5027278;28;20033;-59
2023/02/26 00:52:49;;;;;;;25.35;13.73;;;20.70;99.90;;;;;;5032082;28;20037;-60
2023/02/26 00:55:15;;;;;;;25.13;13.43;;;20.70;99.90;;;;;;5032113;28;20025;-60
2023/02/26 00:57:41;;;;;;;25.67;14.07;;;20.70;99.90;;;;;;5014508;28;20079;-61
2023/02/26 01:00:07;;;;;;;27.60;12.52;;;20.70;99.90;;;;;;5047775;23;20053;-55
2023/02/26 01:02:35;;;;;;;27.45;13.88;;;20.70;99.90;;;;;;5032200;28;20105;-56
2023/02/26 01:05:02;;;;;;;21.08;12.77;;;20.70;99.90;;;;;;5032171;28;20022;-60
2023/02/26 01:07:31;;;;;;;22.23;12.63;;;20.70;99.90;;;;;;5032019;28;20103;-55
2023/02/26 01:09:57;;;;;;;22.85;13.63;;;20.70;99.90;;;;;;5014528;28;20024;-55
2023/02/26 01:12:23;;;;;;;23.95;12.88;;;20.60;99.90;;;;;;5032326;28;20029;-56
2023/02/26 01:14:51;;;;;;;24.38;13.80;;;20.60;99.90;;;;;;5031979;28;20022;-55
2023/02/26 01:17:31;;;;;;;25.98;14.00;;;20.60;99.90;;;;;;5032116;28;20018;-56
2023/02/26 01:20:13;;;;;;;20.85;12.10;;;20.60;99.90;;;;;;5030130;28;20033;-56
2023/02/26 01:23:02;;;;;;;23.90;13.25;;;20.60;99.90;;;;;;5023186;28;20018;-55
2023/02/26 01:25:35;;;;;;;21.08;11.95;;;20.60;99.90;;;;;;5031449;28;20037;-56
2023/02/26 01:28:02;;;;;;;23.42;12.85;;;20.60;99.90;;;;;;5001145;28;20072;-56
2023/02/26 01:30:28;;;;;;;24.50;13.63;;;20.50;99.90;;;;;;5007551;28;20384;-55
2023/02/26 01:33:08;;;;;;;22.80;13.00;;;20.60;99.90;;;;;;5008435;28;20079;-55
2023/02/26 01:36:00;;;;;;;21.75;13.55;;;20.60;99.90;;;;;;5020311;28;20144;-56
2023/02/26 01:38:27;;;;;;;24.92;12.25;;;20.50;99.90;;;;;;5027026;28;20010;-55
2023/02/26 01:41:06;;;;;;;25.10;13.10;;;20.50;99.90;;;;;;5022022;28;20065;-54
2023/02/26 01:43:50;;;;;;;23.63;12.20;;;20.50;99.90;;;;;;5014172;28;20010;-55
2023/02/26 01:46:31;;;;;;;25.23;13.93;;;20.50;99.90;;;;;;5031635;28;20546;-55
2023/02/26 01:48:58;;;;;;;23.23;12.65;;;20.50;99.90;;;;;;5032039;28;20022;-55
2023/02/26 01:51:52;;;;;;;23.40;12.00;;;20.50;99.90;;;;;;5031819;28;20021;-55
2023/02/26 01:54:21;;;;;;;20.77;12.75;;;20.50;99.90;;;;;;5029669;28;20037;-55
2023/02/26 01:57:08;;;;;;;21.17;12.75;;;20.50;99.90;;;;;;5013967;28;20025;-56
2023/02/26 01:59:38;;;;;;;26.05;13.15;;;20.50;99.90;;;;;;5045137;23;20073;-60
2023/02/26 02:02:07;;;;;;;21.02;12.73;;;20.50;99.90;;;;;;5033881;28;20037;-59
2023/02/26 02:04:33;;;;;;;21.33;13.10;;;20.40;99.90;;;;;;5035276;28;20080;-62
2023/02/26 02:06:59;;;;;;;20.67;13.23;;;20.40;99.90;;;;;;5035518;28;20496;-60
2023/02/26 02:09:25;;;;;;;22.92;14.80;;;20.40;99.90;;;;;;5035423;28;20037;-60
2023/02/26 02:12:14;;;;;;;23.92;13.73;;;20.40;99.90;;;;;;5016688;28;20026;-61
2023/02/26 02:14:54;;;;;;;22.65;12.90;;;20.40;99.90;;;;;;5028886;28;20021;-60
2023/02/26 02:17:34;;;;;;;24.20;13.55;;;20.40;99.90;;;;;;5017622;28;20029;-60
2023/02/26 02:20:32;;;;;;;23.67;14.95;;;20.40;99.90;;;;;;5019615;28;20072;-60
2023/02/26 02:23:21;;;;;;;23.35;13.93;;;20.40;99.90;;;;;;5035104;28;20045;-60
2023/02/26 02:26:05;;;;;;;24.20;14.25;;;20.40;99.90;;;;;;5034933;28;20025;-60
2023/02/26 02:28:39;;;;;;;24.15;14.38;;;20.30;99.90;;;;;;5030547;28;20032;-60
2023/02/26 02:31:23;;;;;;;23.17;13.10;;;20.30;99.90;;;;;;5027581;28;20025;-60
2023/02/26 02:33:59;;;;;;;22.98;14.05;;;20.30;99.90;;;;;;5028432;28;20594;-60
2023/02/26 02:36:40;;;;;;;23.08;13.65;;;20.30;99.90;;;;;;5029409;28;20061;-60
2023/02/26 02:39:15;;;;;;;25.70;14.00;;;20.30;99.90;;;;;;5034730;28;20159;-60
2023/02/26 02:42:15;;;;;;;20.38;13.13;;;20.30;99.90;;;;;;5016956;28;20028;-61
2023/02/26 02:44:47;;;;;;;23.52;14.63;;;20.30;99.90;;;;;;5033521;28;20430;-60
2023/02/26 02:47:16;;;;;;;23.08;14.10;;;20.30;99.90;;;;;;5014973;28;20038;-60
2023/02/26 02:49:58;;;;;;;23.42;14.13;;;20.30;99.90;;;;;;5011004;28;20025;-60
2023/02/26 02:52:28;;;;;;;25.23;13.82;;;20.30;99.90;;;;;;5034473;28;20060;-60
2023/02/26 02:55:05;;;;;;;21.17;13.15;;;20.30;99.90;;;;;;5019320;28;20029;-60
2023/02/26 02:57:44;;;;;;;21.27;13.50;;;20.30;99.90;;;;;;5014946;28;20030;-60
2023/02/26 03:00:12;;;;;;;20.92;12.38;;;20.30;99.90;;;;;;5015007;28;20052;-60
2023/02/26 03:03:05;;;;;;;22.20;14.13;;;20.20;99.90;;;;;;4997354;28;20140;-60
2023/02/26 03:05:31;;;;;;;22.15;14.02;;;20.20;99.90;;;;;;5019928;28;20044;-60
2023/02/26 03:08:08;;;;;;;20.27;13.50;;;20.20;99.90;;;;;;5034140;28;20033;-60
2023/02/26 03:10:35;;;;;;;20.23;13.10;;;20.20;99.90;;;;;;5021613;28;20016;-60
2023/02/26 03:13:01;;;;;;;25.83;14.27;;;20.20;99.90;;;;;;5004434;28;20034;-60
2023/02/26 03:15:36;;;;;;;20.90;13.45;;;20.20;99.90;;;;;;5033297;28;20044;-60
2023/02/26 03:18:11;;;;;;;20.77;12.60;;;20.20;99.90;;;;;;5034147;28;20088;-60
2023/02/26 03:20:52;;;;;;;20.48;12.60;;;20.20;99.90;;;;;;5034038;28;20022;-60
2023/02/26 03:23:23;;;;;;;21.75;13.02;;;20.20;99.90;;;;;;5016463;28;20018;-60
2023/02/26 03:25:54;;;;;;;20.40;12.73;;;20.20;99.90;;;;;;5025823;28;20025;-61
2023/02/26 03:28:47;;;;;;;19.63;12.43;;;20.10;99.90;;;;;;5020590;28;20499;-60
2023/02/26 03:31:40;;;;;;;23.33;13.85;;;20.10;99.90;;;;;;5033509;28;20071;-60
2023/02/26 03:34:29;;;;;;;19.75;12.70;;;20.10;99.90;;;;;;5033788;28;20032;-60
2023/02/26 03:37:07;;;;;;;19.10;11.63;;;20.10;99.90;;;;;;5033679;28;20034;-60
2023/02/26 03:39:38;;;;;;;19.90;12.52;;;20.10;99.90;;;;;;5033803;28;20478;-60
2023/02/26 03:42:14;;;;;;;17.33;11.40;;;20.10;99.90;;;;;;5033914;28;20061;-60
2023/02/26 03:44:51;;;;;;;19.70;12.23;;;20.10;99.90;;;;;;5033415;28;20045;-60
2023/02/26 03:47:19;;;;;;;19.58;12.60;;;20.10;99.90;;;;;;5033365;28;20062;-60
2023/02/26 03:50:00;;;;;;;21.52;13.10;;;20.10;99.90;;;;;;5020191;28;20131;-63
2023/02/26 03:52:29;;;;;;;18.13;12.23;;;20.10;99.90;;;;;;5033392;28;20123;-60
2023/02/26 03:54:59;;;;;;;19.17;12.00;;;20.10;99.90;;;;;;5033186;28;20025;-60
2023/02/26 03:57:25;;;;;;;18.80;11.25;;;20.10;99.90;;;;;;5033374;28;20049;-60
2023/02/26 03:59:53;;;;;;;19.95;11.45;;;20.10;99.90;;;;;;5033591;28;20049;-60
2023/02/26 04:02:28;;;;;;;15.85;10.38;;;20.00;99.90;;;;;;5023931;28;20029;-62
2023/02/26 04:05:13;;;;;;;18.33;11.85;;;20.10;99.90;;;;;;5013348;28;20388;-63
2023/02/26 04:07:40;;;;;;;18.55;11.43;;;20.00;99.90;;;;;;5024856;28;20036;-62
2023/02/26 04:10:08;;;;;;;18.42;11.38;;;20.00;99.90;;;;;;5019943;28;20026;-62
2023/02/26 04:12:34;;;;;;;17.85;11.32;;;20.00;99.90;;;;;;5033082;28;20025;-60
2023/02/26 04:15:00;;;;;;;16.02;10.00;;;20.00;99.90;;;;;;5015794;28;20117;-60
2023/02/26 04:17:26;;;;;;;19.08;10.48;;;20.00;99.90;;;;;;5013120;28;20033;-60
2023/02/26 04:19:52;;;;;;;15.55;10.13;;;20.00;99.90;;;;;;5030200;28;20021;-61
2023/02/26 04:22:18;;;;;;;15.93;10.57;;;20.00;99.90;;;;;;5032815;28;20041;-60
2023/02/26 04:24:43;;;;;;;17.67;10.25;;;20.00;99.90;;;;;;5014353;28;20067;-60
2023/02/26 04:27:09;;;;;;;17.00;10.35;;;20.00;99.90;;;;;;5005868;28;20092;-60
2023/02/26 04:29:36;;;;;;;18.58;9.98;;;20.00;99.90;;;;;;5029111;28;20387;-61
2023/02/26 04:32:02;;;;;;;16.83;10.75;;;19.90;99.90;;;;;;5032623;28;20021;-60
2023/02/26 04:34:28;;;;;;;17.73;10.02;;;20.00;99.90;;;;;;5032561;28;20419;-62
2023/02/26 04:36:53;;;;;;;13.05;9.05;;;19.90;99.90;;;;;;5032547;28;20021;-60
2023/02/26 04:39:19;;;;;;;14.60;10.25;;;19.90;99.90;;;;;;5019726;28;20037;-60
2023/02/26 04:41:45;;;;;;;15.15;9.52;;;19.90;99.90;;;;;;5018904;28;20021;-60
2023/02/26 04:44:11;;;;;;;15.25;9.48;;;19.90;99.90;;;;;;5022643;28;20037;-60
2023/02/26 04:46:37;;;;;;;18.70;9.77;;;19.90;99.90;;;;;;5027430;28;20108;-61
2023/02/26 04:49:03;;;;;;;13.73;9.30;;;19.90;99.90;;;;;;5020859;28;20021;-59
2023/02/26 04:51:29;;;;;;;15.27;9.10;;;19.90;99.90;;;;;;5030510;28;20434;-62
2023/02/26 04:53:55;;;;;;;12.90;8.52;;;19.90;99.90;;;;;;5012546;28;20113;-59
2023/02/26 04:56:21;;;;;;;15.75;9.63;;;19.90;99.90;;;;;;5026073;28;20087;-63
2023/02/26 04:58:47;;;;;;;12.93;8.43;;;19.90;99.90;;;;;;5032269;28;20036;-60
2023/02/26 05:01:13;;;;;;;14.98;8.85;;;19.90;99.90;;;;;;5032321;23;20591;-50
2023/02/26 05:03:39;;;;;;;11.82;8.63;;;19.90;99.90;;;;;;5006140;28;20110;-50
2023/02/26 05:06:05;;;;;;;13.18;8.23;;;19.90;99.90;;;;;;5004650;28;20479;-50
2023/02/26 05:08:31;;;;;;;11.75;7.78;;;19.90;99.90;;;;;;4998856;28;20066;-50
2023/02/26 05:10:57;;;;;;;12.98;7.28;;;19.90;99.90;;;;;;5012166;28;20033;-50
2023/02/26 05:13:22;;;;;;;14.25;7.53;;;19.90;99.90;;;;;;5012463;28;20022;-50
2023/02/26 05:15:48;;;;;;;11.82;7.57;;;19.90;99.90;;;;;;5011704;28;20538;-51
2023/02/26 05:18:14;;;;;;;14.07;6.90;;;19.90;99.90;;;;;;5011701;28;20472;-51
2023/02/26 05:20:40;;;;;;;11.20;7.13;;;19.90;99.90;;;;;;5011966;28;20420;-51
2023/02/26 05:23:06;;;;;;;11.63;7.07;;;19.90;99.90;;;;;;5011887;28;20488;-50
2023/02/26 05:25:31;;;;;;;10.40;6.70;;;19.90;99.90;;;;;;5010393;28;20049;-51
2023/02/26 05:27:57;;;;;;;11.82;6.90;;;19.90;99.90;;;;;;5011624;28;20488;-50
2023/02/26 05:30:23;;;;;;;10.57;6.80;;;19.90;99.90;;;;;;5010843;28;20058;-50
2023/02/26 05:32:49;;;;;;;12.18;6.90;;;19.90;99.90;;;;;;5010703;28;20026;-50
2023/02/26 05:35:15;;;;;;;12.32;7.10;;;19.90;99.90;;;;;;4994569;28;20026;-50
2023/02/26 05:37:40;;;;;;;10.52;6.05;;;19.90;99.90;;;;;;5010084;28;20097;-50
2023/02/26 05:40:11;;;;;;;10.23;6.47;;;19.80;99.90;;;;;;4995463;28;20357;-50
2023/02/26 05:42:38;;;;;;;10.93;5.88;;;19.80;99.90;;;;;;4996631;28;20014;-50
2023/02/26 05:45:05;;;;;;;9.77;6.07;;;19.80;99.90;;;;;;4996595;28;20054;-50
2023/02/26 05:47:33;;;;;;;11.13;5.95;;;19.80;99.90;;;;;;5012890;28;21059;-50
2023/02/26 05:49:58;;;;;;;9.52;5.65;;;19.80;99.90;;;;;;5015891;28;20022;-51
2023/02/26 05:52:24;;;;;;;9.13;5.88;;;19.80;99.90;;;;;;4997469;28;20387;-50
2023/02/26 05:54:50;;;;;;;14.80;5.95;;;19.80;99.90;;;;;;5020211;28;20032;-50
2023/02/26 05:57:16;;;;;;;13.63;6.03;;;19.80;99.90;;;;;;5000741;28;20054;-50
2023/02/26 05:59:41;;;;;;;10.35;5.90;;;19.80;99.90;;;;;;5000881;28;20414;-50
2023/02/26 06:02:07;;;;;;;10.88;5.57;;;19.80;99.90;;;;;;5035625;28;20079;-50
2023/02/26 06:04:33;;;;;;;10.60;6.47;;;19.80;99.90;;;;;;5028879;28;20025;-50
2023/02/26 06:06:59;;;;;;;8.65;5.82;;;19.80;99.90;;;;;;5028718;28;20038;-50
2023/02/26 06:09:25;;;;;;;10.10;5.45;;;19.80;99.90;;;;;;5035346;28;20064;-50
2023/02/26 06:11:50;;;;;;;8.85;6.05;;;19.80;99.90;;;;;;5035399;28;20029;-50
2023/02/26 06:14:16;;;;;;;11.15;6.45;;;19.80;99.90;;;;;;5021896;28;20483;-50
2023/02/26 06:16:42;;;;;;;8.98;5.75;;;19.80;99.90;;;;;;5035262;28;20017;-50
2023/02/26 06:19:08;;;;;;;9.63;5.93;;;19.80;99.90;;;;;;5035138;28;20537;-50
2023/02/26 06:21:33;;;;;;;9.52;5.60;;;19.70;99.90;;;;;;5021837;28;20493;-50
2023/02/26 06:23:59;;;;;;;7.32;4.90;;;19.80;99.90;;;;;;5017217;28;20029;-50
2023/02/26 06:26:25;;;;;;;8.75;5.65;;;19.80;99.90;;;;;;5021556;28;20033;-51
2023/02/26 06:28:51;;;;;;;7.60;4.90;;;19.70;99.90;;;;;;5017220;28;20056;-50
2023/02/26 06:31:16;;;;;;;12.00;6.03;;;19.70;99.90;;;;;;5021563;28;20104;-50
2023/02/26 06:33:42;;;;;;;8.95;5.90;;;19.80;99.90;;;;;;5024754;28;20076;-50
2023/02/26 06:36:08;;;;;;;9.27;5.53;;;19.80;99.90;;;;;;5017226;28;20025;-50
2023/02/26 06:38:34;;;;;;;10.27;5.70;;;19.70;99.90;;;;;;5025859;28;20030;-50
2023/02/26 06:41:00;;;;;;;9.50;5.22;;;19.80;99.90;;;;;;5015445;28;20025;-50
2023/02/26 06:43:26;;;;;;;9.55;5.82;;;19.70;99.90;;;;;;5034808;28;20022;-50
2023/02/26 06:45:52;;;;;;;9.60;5.07;;;19.70;99.90;;;;;;5021173;28;20092;-50
2023/02/26 06:48:18;;;;;;;7.90;5.03;;;19.70;99.90;;;;;;5028419;28;20050;-50
2023/02/26 06:50:44;;;;;;;9.55;5.45;;;19.70;99.90;;;;;;5013786;28;20128;-51
2023/02/26 06:53:10;;;;;;;9.50;4.97;;;19.70;99.90;;;;;;5014981;28;20569;-53
2023/02/26 06:55:36;;;;;;;7.90;4.28;;;19.70;99.90;;;;;;5008231;28;20030;-51
2023/02/26 06:58:01;;;;;;;8.10;5.10;;;19.70;99.90;;;;;;5030109;28;20101;-50
2023/02/26 07:00:27;;;;;;;8.13;5.18;;;19.70;99.90;;;;;;5013265;28;20052;-50
2023/02/26 07:02:53;;;;;;;8.45;5.35;;;19.70;99.90;;;;;;5030304;28;20495;-50
2023/02/26 07:05:19;;;;;;;7.00;4.80;;;19.70;99.90;;;;;;5016613;28;20036;-50
2023/02/26 07:07:44;;;;;;;7.53;5.10;;;19.70;99.90;;;;;;5019421;28;20037;-50
2023/02/26 07:10:12;;;;;;;7.15;4.68;;;19.70;99.90;;;;;;5026561;28;20472;-50
2023/02/26 07:12:38;;;;;;;12.63;5.85;;;19.70;99.90;;;;;;5015763;28;20033;-50
2023/02/26 07:15:05;;;;;;;7.30;4.63;;;19.70;99.90;;;;;;5027520;28;20030;-50
2023/02/26 07:17:31;;;;;;;8.47;5.53;;;19.70;99.90;;;;;;5027529;28;20360;-50
2023/02/26 07:19:57;;;;;;;8.68;5.00;;;19.70;99.90;;;;;;5015048;28;20807;-50
2023/02/26 07:22:23;;;;;;;10.95;5.30;;;19.60;99.90;;;;;;5023891;28;20056;-49
2023/02/26 07:24:50;;;;;;;8.90;5.20;;;19.60;99.90;;;;;;5033966;28;20443;-51
2023/02/26 07:27:16;;;;;;;8.50;5.47;;;19.70;99.90;;;;;;5034243;28;20042;-50
2023/02/26 07:29:41;;;;;;;7.57;4.80;;;19.70;99.90;;;;;;5033865;28;20021;-50
2023/02/26 07:32:07;;;;;;;7.05;5.10;;;19.70;99.90;;;;;;5025452;28;20041;-50
2023/02/26 07:34:33;;;;;;;7.47;4.85;;;19.60;99.90;;;;;;5027190;28;20026;-50
2023/02/26 07:36:59;;;;;;;11.25;5.43;;;19.60;99.90;;;;;;5033780;28;20036;-50
2023/02/26 07:39:26;;;;;;;7.88;5.32;;;19.60;99.90;;;;;;5015849;28;20025;-50
2023/02/26 07:41:52;;;;;;;7.37;4.53;;;19.60;99.90;;;;;;5020400;28;20021;-50
2023/02/26 07:44:17;;;;;;;7.13;4.50;;;19.60;99.90;;;;;;5033653;28;20017;-50
2023/02/26 07:46:44;;;;;;;7.28;4.97;;;19.60;99.90;;;;;;5015129;28;20034;-50
2023/02/26 07:49:09;;;;;;;6.30;4.47;;;19.70;99.90;;;;;;5013970;28;20026;-50
2023/02/26 07:51:36;;;;;;;8.93;5.03;;;19.70;99.90;;;;;;5013852;28;20533;-49
2023/02/26 07:54:02;;;;;;;7.25;4.22;;;19.70;99.90;;;;;;5022231;28;20352;-49
2023/02/26 07:56:28;;;;;;;7.70;5.30;;;19.70;99.90;;;;;;5018139;28;20452;-50
2023/02/26 07:58:53;;;;;;;8.57;5.55;;;19.70;99.90;;;;;;5021322;28;20093;-50
2023/02/26 08:01:19;;;;;;;8.40;5.55;;;19.70;99.90;;;;;;5020499;28;20081;-49
2023/02/26 08:03:45;;;;;;;7.45;4.90;;;19.70;99.90;;;;;;5013507;28;20361;-50
2023/02/26 08:06:11;;;;;;;8.52;4.70;;;19.70;99.90;;;;;;5013323;28;20080;-51
2023/02/26 08:08:37;;;;;;;8.07;4.65;;;19.80;99.90;;;;;;5026448;28;20029;-50
2023/02/26 08:11:02;;;;;;;7.85;5.07;;;19.80;99.90;;;;;;5013309;28;20029;-50
2023/02/26 08:13:28;;;;;;;8.65;5.18;;;19.80;99.90;;;;;;5016145;28;20044;-51
2023/02/26 08:15:54;;;;;;;9.90;4.43;;;19.80;99.90;;;;;;5032841;28;20159;-50
2023/02/26 08:18:20;;;;;;;9.30;4.90;;;19.80;99.90;;;;;;5028629;28;20030;-51
2023/02/26 08:20:46;;;;;;;6.50;4.53;;;19.80;99.90;;;;;;5024462;28;20061;-51
2023/02/26 08:23:12;;;;;;;7.78;4.80;;;19.80;99.90;;;;;;5019466;28;20032;-51
2023/02/26 08:25:38;;;;;;;8.55;5.13;;;19.80;99.90;;;;;;5022222;28;20022;-50
2023/02/26 08:28:04;;;;;;;8.07;4.50;;;19.90;99.90;;;;;;5013034;28;20555;-50
2023/02/26 08:30:30;;;;;;;7.10;5.30;;;19.90;99.90;;;;;;5011677;28;20104;-50
2023/02/26 08:32:56;;;;;;;6.82;4.57;;;19.90;99.90;;;;;;5028532;28;20099;-51
2023/02/26 08:35:21;;;;;;;6.15;3.80;;;19.90;99.90;;;;;;5024030;28;20480;-50
2023/02/26 08:37:47;;;;;;;8.48;4.97;;;19.90;99.90;;;;;;5014026;28;20445;-50
2023/02/26 08:40:13;;;;;;;6.88;4.10;;;19.90;99.90;;;;;;5032569;28;20026;-50
2023/02/26 08:42:40;;;;;;;8.52;5.18;;;19.90;99.90;;;;;;5032453;28;20100;-50
2023/02/26 08:45:06;;;;;;;7.18;4.75;;;20.00;99.90;;;;;;5032370;28;20390;-51
2023/02/26 08:47:32;;;;;;;7.00;4.78;;;20.00;99.90;;;;;;5032224;28;20041;-50
2023/02/26 08:49:58;;;;;;;8.07;4.78;;;20.00;99.90;;;;;;5032054;28;20021;-50
2023/02/26 08:52:24;;;;;;;7.53;4.78;;;20.00;99.90;;;;;;5021864;28;20476;-50
2023/02/26 08:54:50;;;;;;;8.38;4.90;;;20.00;99.90;;;;;;5012693;28;20037;-50
2023/02/26 08:57:16;;;;;;;7.38;4.93;;;20.10;99.90;;;;;;5012816;28;20022;-50
2023/02/26 08:59:42;;;;;;;7.22;4.47;;;20.00;99.90;;;;;;5011975;28;20064;-50
2023/02/26 09:02:10;;;;;;;6.97;4.90;;;20.00;99.90;;;;;;5019637;28;20507;-50
2023/02/26 09:04:36;;;;;;;6.35;4.28;;;20.10;99.90;;;;;;5018790;28;20111;-51
2023/02/26 09:07:03;;;;;;;7.43;4.68;;;20.10;99.90;;;;;;5025833;28;20030;-49
2023/02/26 09:09:28;;;;;;;6.85;4.53;;;20.10;99.90;;;;;;5024940;28;20021;-50
2023/02/26 09:11:54;;;;;;;6.03;4.30;;;20.10;99.90;;;;;;5018223;28;20494;-50
2023/02/26 09:14:20;;;;;;;7.25;4.45;;;20.10;99.90;;;;;;5019422;28;20034;-51
2023/02/26 09:16:46;;;;;;;7.50;4.60;;;20.20;99.90;;;;;;5029730;28;20068;-50
2023/02/26 09:19:11;;;;;;;7.18;4.20;;;20.20;99.90;;;;;;5020304;28;20106;-50
2023/02/26 09:21:37;;;;;;;7.03;4.35;;;20.20;99.90;;;;;;5025005;28;20487;-49
2023/02/26 09:24:03;;;;;;;8.93;4.95;;;20.20;99.90;;;;;;5011929;28;20030;-49
2023/02/26 09:26:29;;;;;;;7.13;4.32;;;20.20;99.90;;;;;;5008902;28;20491;-49
2023/02/26 09:28:55;;;;;;;7.07;3.85;;;20.20;99.90;;;;;;5013756;28;20075;-50
2023/02/26 09:31:20;;;;;;;5.90;4.13;;;20.30;99.90;;;;;;5031985;28;20029;-50
2023/02/26 09:33:46;;;;;;;9.00;5.20;;;20.30;99.90;;;;;;5031775;28;20018;-50
2023/02/26 09:36:12;;;;;;;7.78;4.85;;;20.30;99.90;;;;;;5031543;28;20025;-51
2023/02/26 09:38:38;;;;;;;5.57;4.15;;;20.30;99.90;;;;;;5011782;28;20053;-50
2023/02/26 09:41:15;;;;;;;6.40;4.75;;;20.30;99.90;;;;;;5011705;28;20105;-51
2023/02/26 09:43:44;;;;;;;7.30;5.03;;;20.40;99.90;;;;;;5024699;28;20017;-50
2023/02/26 09:46:25;;;;;;;7.70;4.10;;;20.40;99.90;;;;;;5023872;28;20063;-51
2023/02/26 09:48:53;;;;;;;7.20;4.93;;;20.40;99.90;;;;;;5019127;28;20487;-50
2023/02/26 09:51:22;;;;;;;6.50;4.22;;;20.50;99.90;;;;;;5031605;28;20030;-49
2023/02/26 09:53:50;;;;;;;8.15;4.80;;;20.50;99.90;;;;;;5024567;28;20022;-48
2023/02/26 09:56:17;;;;;;;;;;;20.50;99.90;;;;;;5025145;28;20037;-50
2023/02/26 09:58:44;;;;;;;6.50;4.50;;;20.60;99.90;;;;;;5017065;28;19948;-50
2023/02/26 10:01:34;;;;;;;9.25;5.00;;;20.60;99.90;;;;;;5018802;28;20140;-50
2023/02/26 10:04:47;;;;;;;7.85;4.97;;;20.60;99.90;;;;;;5011556;28;20502;-50
2023/02/26 10:07:22;;;;;;;7.10;4.45;;;20.70;99.90;;;;;;4938732;29;20042;-50
2023/02/26 10:10:21;;;;;;;7.25;4.05;;;20.70;99.90;;;;;;5022538;28;20042;-50
2023/02/26 10:12:49;;;;;;;6.80;4.57;;;20.80;99.90;;;;;;4995833;28;20094;-50
2023/02/26 10:15:18;;;;;;;6.63;4.70;;;20.80;99.90;;;;;;5018040;28;20346;-50
2023/02/26 10:18:12;;;;;;;7.93;4.00;;;20.80;99.90;;;;;;5031145;28;20025;-50
2023/02/26 10:20:59;;;;;;;6.07;4.38;;;20.90;99.90;;;;;;5031259;28;20009;-50
2023/02/26 10:23:37;;;;;;;6.45;4.15;;;20.90;99.90;;;;;;5016489;28;20026;-50
2023/02/26 10:26:24;;;;;;;6.60;3.90;;;20.90;99.90;;;;;;5015153;28;20038;-50
2023/02/26 10:28:56;;;;;;;8.57;4.15;;;20.90;99.90;;;;;;5023721;28;20071;-50
2023/02/26 10:31:28;;;;;;;8.00;4.25;;;20.90;99.90;;;;;;5034649;28;20083;-50
2023/02/26 10:34:00;;;;;;;7.57;4.20;;;20.90;99.90;;;;;;5017505;28;20029;-50
2023/02/26 10:36:44;;;;;;;6.30;4.10;;;20.90;99.90;;;;;;5032775;28;20021;-50
2023/02/26 10:39:36;;;;;;;6.10;3.85;;;20.90;99.90;;;;;;5025859;28;20029;-50
2023/02/26 10:42:17;;;;;;;5.88;4.07;;;20.90;99.90;;;;;;5021203;28;20491;-50
2023/02/26 10:45:01;;;;;;;7.40;4.25;;;21.00;99.90;;;;;;5021132;28;20036;-50
2023/02/26 10:48:06;;;;;;;6.38;4.28;;;21.00;99.90;;;;;;5023420;28;20037;-50
2023/02/26 10:50:32;;;;;;;6.13;3.72;;;21.00;99.90;;;;;;4969650;28;20041;-50
2023/02/26 10:52:58;;;;;;;7.32;3.90;;;21.00;99.90;;;;;;5031372;28;20475;-50
2023/02/26 10:55:30;;;;;;;6.68;3.92;;;21.00;99.90;;;;;;5022935;28;20033;-51
2023/02/26 10:58:14;;;;;;;8.68;3.90;;;21.00;99.90;;;;;;5019040;28;20045;-50
2023/02/26 11:00:41;;;;;;;7.20;4.25;;;21.00;99.90;;;;;;5023728;28;20121;-51
2023/02/26 11:03:12;;;;;;;6.55;3.50;;;21.00;99.90;;;;;;5019340;28;20022;-51
2023/02/26 11:05:38;;;;;;;7.03;4.43;;;21.00;99.90;;;;;;5023365;28;20519;-51
2023/02/26 11:08:25;;;;;;;7.38;4.50;;;21.00;99.90;;;;;;5012223;28;20562;-51
2023/02/26 11:10:57;;;;;;;4.88;3.72;;;21.00;99.90;;;;;;5033867;28;20025;-50
2023/02/26 11:13:26;;;;;;;8.30;4.28;;;21.00;99.90;;;;;;5014591;28;20105;-49
2023/02/26 11:15:56;;;;;;;5.88;4.07;;;21.00;99.90;;;;;;5027516;28;20048;-49
2023/02/26 11:18:29;;;;;;;6.32;4.18;;;21.00;99.90;;;;;;5030301;28;20022;-49
2023/02/26 11:20:58;;;;;;;7.28;4.63;;;21.10;99.90;;;;;;5024142;28;20030;-50
2023/02/26 11:23:28;;;;;;;6.97;3.88;;;21.10;99.90;;;;;;5020526;28;20017;-50
2023/02/26 11:26:12;;;;;;;7.63;4.50;;;21.10;99.90;;;;;;5032500;28;20025;-50
2023/02/26 11:28:45;;;;;;;6.30;4.53;;;21.10;99.90;;;;;;5034259;28;20025;-50
2023/02/26 11:31:15;;;;;;;7.22;4.20;;;21.10;99.90;;;;;;5033651;28;20017;-50
2023/02/26 11:34:03;;;;;;;7.65;4.57;;;21.10;99.90;;;;;;5032507;28;20025;-50
2023/02/26 11:36:32;;;;;;;8.85;4.07;;;21.10;99.90;;;;;;5033592;28;20026;-50
2023/02/26 11:39:06;;;;;;;6.68;4.50;;;21.10;99.90;;;;;;5033791;28;20104;-49
2023/02/26 11:41:37;;;;;;;11.10;4.45;;;21.10;99.90;;;;;;5033362;28;20085;-49
2023/02/26 11:44:26;;;;;;;8.32;4.25;;;21.10;99.90;;;;;;5022476;28;20057;-49
2023/02/26 11:46:55;;;;;;;6.68;4.47;;;21.10;99.90;;;;;;5026615;28;20033;-49
2023/02/26 11:49:27;;;;;;;7.60;4.88;;;21.10;99.90;;;;;;5025148;28;20029;-49
2023/02/26 11:52:08;;;;;;;6.63;4.57;;;21.00;99.90;;;;;;5028189;28;20403;-49
2023/02/26 11:54:36;;;;;;;7.82;4.50;;;21.10;99.90;;;;;;5013209;28;20026;-49
2023/02/26 11:57:07;;;;;;;7.03;4.80;;;21.10;99.90;;;;;;4995888;28;20084;-49
2023/02/26 11:59:33;;;;;;;6.93;4.43;;;21.10;99.90;;;;;;5013457;28;20029;-53
2023/02/26 12:02:13;;;;;;;8.20;5.30;;;21.10;99.90;;;;;;5026212;28;20060;-49
2023/02/26 12:04:43;;;;;;;9.13;5.38;;;21.10;99.90;;;;;;5028845;28;20418;-50
2023/02/26 12:07:13;;;;;;;7.95;5.43;;;21.10;99.90;;;;;;5024990;28;20373;-49
2023/02/26 12:09:39;;;;;;;7.80;5.03;;;21.10;99.90;;;;;;5028052;28;20049;-49
2023/02/26 12:12:33;;;;;;;10.73;5.53;;;21.10;99.90;;;;;;5026087;28;20025;-49
2023/02/26 12:15:12;;;;;;;9.55;5.65;;;21.10;99.90;;;;;;5030376;28;20025;-50
2023/02/26 12:17:46;;;;;;;9.80;5.32;;;21.10;99.90;;;;;;5032582;28;20021;-49
2023/02/26 12:20:39;;;;;;;7.55;5.45;;;21.20;99.90;;;;;;5014561;28;20030;-50
2023/02/26 12:23:18;;;;;;;8.25;5.30;;;21.20;99.90;;;;;;5019374;28;20036;-50
2023/02/26 12:26:27;;;;;;;8.15;5.18;;;21.20;99.90;;;;;;5032523;28;20021;-50
2023/02/26 12:28:59;;;;;;;8.57;5.45;;;21.20;99.90;;;;;;5021987;28;20099;-49
2023/02/26 12:31:37;;;;;;;8.68;5.55;;;21.30;99.90;;;;;;5032441;28;20018;-49
2023/02/26 12:34:31;;;;;;;9.35;6.15;;;21.30;99.90;;;;;;5022724;28;20036;-49
2023/02/26 12:37:33;;;;;;;8.77;6.13;;;21.40;99.90;;;;;;5019657;28;20022;-50
2023/02/26 12:40:05;;;;;;;9.25;6.22;;;21.40;99.90;;;;;;5028165;28;20522;-50
2023/02/26 12:42:31;;;;;;;11.10;5.95;;;21.40;99.90;;;;;;5012754;28;20065;-50
2023/02/26 12:45:28;;;;;;;10.73;6.35;;;21.40;99.90;;;;;;5030541;28;20513;-50
2023/02/26 12:48:15;;;;;;;8.93;6.18;;;21.50;99.90;;;;;;5032209;28;20034;-49
2023/02/26 12:50:47;;;;;;;9.52;6.25;;;21.50;99.90;;;;;;5021708;28;20026;-50
2023/02/26 12:53:43;;;;;;;10.73;6.30;;;21.50;99.90;;;;;;5015313;28;20078;-50
2023/02/26 12:56:31;;;;;;;9.20;6.20;;;21.60;99.90;;;;;;5018560;28;20033;-49
2023/02/26 12:59:22;;;;;;;;;;;21.50;99.90;;;;;;5021346;28;20117;-49
2023/02/26 13:02:16;;;;;;;9.60;6.50;;;21.60;99.90;;;;;;4991748;28;19963;-49